Time;durP1;ratioP1;P1;durP2;ratioP2;P2;SDS_P1;SDS_P2;PMS_P1;PMS_P2;Temp;Humidity;BMP_temperature;BMP_pressure;BME280_temperature;BME280_humidity;BME280_pressure;Samples;Min_cycle;Max_cycle;Signal;HPM_P1;HPM_P2
2022/08/28 00:00:37;;;;;;;13.05;6.25;;;;;;;23.86;63.70;101065.34;5067002;27;97127;-68
2022/08/28 00:03:05;;;;;;;16.95;6.75;;;;;;;23.68;64.83;101067.78;5071091;27;97096;-69
2022/08/28 00:05:32;;;;;;;16.98;6.47;;;;;;;23.66;64.91;101067.06;5068655;27;99185;-69
2022/08/28 00:07:59;;;;;;;11.95;6.28;;;;;;;23.62;65.21;101072.84;5063606;27;99049;-68
2022/08/28 00:10:27;;;;;;;13.27;6.88;;;;;;;23.80;65.37;101069.44;5066780;27;98920;-68
2022/08/28 00:12:56;;;;;;;10.60;6.07;;;;;;;23.70;65.36;101070.34;5070370;27;98597;-68
2022/08/28 00:15:27;;;;;;;20.13;9.65;;;;;;;23.70;65.61;101070.34;5073215;27;99275;-69
2022/08/28 00:17:54;;;;;;;12.40;7.45;;;;;;;23.64;65.13;101062.78;5067075;27;97516;-68
2022/08/28 00:20:22;;;;;;;13.70;6.50;;;;;;;23.73;65.46;101070.09;5071189;27;97304;-68
2022/08/28 00:22:50;;;;;;;11.57;5.90;;;;;;;23.70;64.84;101064.94;5067040;27;98462;-68
2022/08/28 00:25:19;;;;;;;13.95;5.30;;;;;;;23.89;63.00;101069.66;5068276;27;98105;-68
2022/08/28 00:27:55;;;;;;;10.02;4.78;;;;;;;23.90;62.69;101079.41;5063831;27;99030;-69
2022/08/28 00:30:23;;;;;;;12.60;5.35;;;;;;;23.99;61.97;101071.41;5069470;27;98382;-69
2022/08/28 00:32:54;;;;;;;11.25;4.47;;;;;;;23.84;62.67;101078.97;5068890;27;99145;-68
2022/08/28 00:35:22;;;;;;;11.75;4.32;;;;;;;23.82;61.52;101074.72;5069046;27;97679;-70
2022/08/28 00:37:49;;;;;;;10.50;4.10;;;;;;;23.88;61.93;101079.59;5069718;27;99676;-69
2022/08/28 00:40:18;;;;;;;9.88;4.30;;;;;;;23.93;60.79;101076.47;5067823;27;97832;-68
2022/08/28 00:42:45;;;;;;;9.57;4.00;;;;;;;23.92;60.81;101074.75;5075882;27;97115;-70
2022/08/28 00:45:15;;;;;;;14.93;4.00;;;;;;;23.86;61.10;101078.84;5065514;27;99103;-69
2022/08/28 00:47:41;;;;;;;11.65;3.65;;;;;;;23.93;61.07;101074.63;5069297;27;99124;-68
2022/08/28 00:50:13;;;;;;;9.05;3.40;;;;;;;23.96;60.41;101076.22;5066015;27;97830;-69
2022/08/28 00:52:39;;;;;;;10.20;3.85;;;;;;;23.71;60.62;101078.31;5067482;27;97083;-68
2022/08/28 00:55:08;;;;;;;9.02;3.50;;;;;;;23.62;60.85;101083.66;5069657;27;101542;-69
2022/08/28 00:57:39;;;;;;;10.63;3.83;;;;;;;23.66;61.30;101074.28;5065431;27;98834;-69
2022/08/28 01:00:08;;;;;;;12.18;3.63;;;;;;;23.83;60.03;101071.00;5070045;27;97046;-68
2022/08/28 01:02:34;;;;;;;11.30;3.58;;;;;;;24.12;59.48;101077.44;5071586;27;96988;-68
2022/08/28 01:05:01;;;;;;;11.05;3.33;;;;;;;24.17;59.29;101075.19;5070177;27;99513;-67
2022/08/28 01:07:29;;;;;;;9.75;4.22;;;;;;;24.00;59.31;101073.13;5070811;27;98928;-68
2022/08/28 01:09:59;;;;;;;13.43;4.10;;;;;;;23.95;58.96;101069.97;5070318;27;97456;-69
2022/08/28 01:12:31;;;;;;;7.93;3.75;;;;;;;23.92;59.33;101075.63;5072350;27;96898;-69
2022/08/28 01:15:01;;;;;;;11.20;3.55;;;;;;;23.98;59.39;101074.22;5063437;27;99383;-68
2022/08/28 01:17:30;;;;;;;11.35;3.63;;;;;;;23.92;59.62;101078.31;5067711;27;99251;-68
2022/08/28 01:20:01;;;;;;;11.85;3.42;;;;;;;24.27;58.44;101071.75;5070587;27;98534;-68
2022/08/28 01:22:36;;;;;;;11.25;4.07;;;;;;;24.00;58.84;101072.25;5066416;27;97688;-68
2022/08/28 01:25:12;;;;;;;19.92;4.47;;;;;;;24.13;59.17;101079.16;5071745;27;99185;-68
2022/08/28 01:27:40;;;;;;;17.17;4.75;;;;;;;24.08;59.59;101077.84;5071417;27;98941;-68
2022/08/28 01:30:08;;;;;;;13.02;4.50;;;;;;;24.13;59.58;101076.47;5072388;27;97664;-68
2022/08/28 01:32:39;;;;;;;13.07;5.25;;;;;;;24.20;58.90;101080.38;5070327;27;97151;-69
2022/08/28 01:35:08;;;;;;;11.18;4.43;;;;;;;23.87;60.53;101077.00;5067873;27;99059;-68
2022/08/28 01:37:35;;;;;;;13.38;5.53;;;;;;;24.03;59.89;101077.38;5068539;27;98940;-69
2022/08/28 01:40:01;;;;;;;11.48;5.38;;;;;;;23.67;61.03;101082.25;5061551;27;96811;-68
2022/08/28 01:42:30;;;;;;;9.90;5.60;;;;;;;23.61;61.85;101080.09;5071515;27;96975;-69
2022/08/28 01:44:57;;;;;;;15.55;6.05;;;;;;;23.57;62.31;101075.91;5062385;27;98937;-68
2022/08/28 01:47:24;;;;;;;16.20;6.18;;;;;;;23.68;61.87;101075.88;5067814;27;98861;-68
2022/08/28 01:49:50;;;;;;;13.77;6.47;;;;;;;23.72;61.96;101074.63;5067455;27;97139;-68
2022/08/28 01:52:16;;;;;;;12.65;6.00;;;;;;;23.74;61.74;101071.81;5066708;27;97088;-68
2022/08/28 01:54:43;;;;;;;13.77;6.60;;;;;;;23.87;61.67;101069.78;5069153;27;98958;-68
2022/08/28 01:57:09;;;;;;;12.68;6.80;;;;;;;23.89;61.75;101066.94;5068519;27;98988;-68
2022/08/28 01:59:37;;;;;;;16.98;7.00;;;;;;;23.74;62.06;101080.75;5068629;27;96785;-68
2022/08/28 02:02:03;;;;;;;12.15;6.57;;;;;;;23.81;61.91;101079.25;5066813;27;97544;-68
2022/08/28 02:04:30;;;;;;;13.55;8.00;;;;;;;23.64;62.56;101070.84;5062490;27;99141;-68
2022/08/28 02:06:56;;;;;;;15.10;7.65;;;;;;;23.41;63.48;101081.75;5069123;27;98971;-68
2022/08/28 02:09:27;;;;;;;17.77;7.72;;;;;;;23.81;62.42;101073.00;5070811;27;96866;-68
2022/08/28 02:11:53;;;;;;;16.50;7.97;;;;;;;23.81;62.20;101081.94;5067874;27;96780;-68
2022/08/28 02:14:21;;;;;;;17.88;8.07;;;;;;;23.76;62.46;101070.66;5060545;27;98925;-68
2022/08/28 02:16:50;;;;;;;15.52;7.20;;;;;;;23.26;64.19;101068.66;5066337;27;99170;-69
2022/08/28 02:19:16;;;;;;;17.92;8.15;;;;;;;23.20;64.81;101063.78;5063656;27;96905;-68
2022/08/28 02:21:42;;;;;;;16.65;9.07;;;;;;;23.08;64.89;101071.06;5070001;27;97648;-68
2022/08/28 02:24:09;;;;;;;16.55;8.15;;;;;;;23.02;65.13;101074.25;5065975;27;99213;-68
2022/08/28 02:26:36;;;;;;;13.07;8.50;;;;;;;23.18;64.62;101074.69;5062263;27;99527;-68
2022/08/28 02:29:04;;;;;;;14.65;7.97;;;;;;;23.18;64.33;101085.47;5062291;27;97536;-68
2022/08/28 02:31:30;;;;;;;15.02;7.97;;;;;;;23.27;64.11;101078.47;5068705;27;96841;-68
2022/08/28 02:33:58;;;;;;;13.77;7.65;;;;;;;23.28;63.75;101081.06;5064125;27;99071;-68
2022/08/28 02:36:28;;;;;;;18.05;8.18;;;;;;;22.96;64.45;101082.84;5069978;27;98939;-67
2022/08/28 02:38:54;;;;;;;12.93;7.43;;;;;;;23.03;64.34;101075.97;5065011;27;96873;-68
2022/08/28 02:41:20;;;;;;;14.35;8.10;;;;;;;22.90;64.77;101080.66;5066027;27;97772;-67
2022/08/28 02:43:50;;;;;;;15.23;7.97;;;;;;;22.76;65.17;101083.63;5065672;27;99070;-68
2022/08/28 02:46:16;;;;;;;20.80;8.15;;;;;;;22.79;64.97;101083.34;5061209;27;98955;-68
2022/08/28 02:48:43;;;;;;;19.80;8.05;;;;;;;22.55;65.35;101087.03;5064082;27;98432;-68
2022/08/28 02:51:15;;;;;;;15.65;7.43;;;;;;;22.39;66.50;101082.97;5064051;27;97063;-68
2022/08/28 02:53:42;;;;;;;17.73;6.30;;;;;;;22.64;65.11;101080.06;5067362;27;99590;-68
2022/08/28 02:56:10;;;;;;;14.77;6.20;;;;;;;22.65;64.65;101087.97;5068853;27;99015;-69
2022/08/28 02:58:38;;;;;;;18.10;6.53;;;;;;;22.65;64.13;101085.28;5068260;27;98358;-69
2022/08/28 03:01:06;;;;;;;9.98;6.00;;;;;;;22.50;64.79;101089.25;5069623;27;98920;-68
2022/08/28 03:03:33;;;;;;;16.90;6.13;;;;;;;22.81;63.67;101086.78;5068879;27;99393;-69
2022/08/28 03:06:00;;;;;;;13.93;5.95;;;;;;;22.89;62.90;101079.81;5068943;27;99331;-69
2022/08/28 03:08:28;;;;;;;16.45;6.03;;;;;;;22.68;63.69;101094.97;5070295;27;97024;-68
2022/08/28 03:10:55;;;;;;;19.40;6.40;;;;;;;22.42;64.29;101088.13;5069149;27;97722;-69
2022/08/28 03:13:24;;;;;;;16.10;5.57;;;;;;;22.34;64.22;101093.25;5064698;27;98254;-68
2022/08/28 03:15:50;;;;;;;14.55;5.63;;;;;;;22.73;63.18;101086.53;5063082;27;98956;-68
2022/08/28 03:18:19;;;;;;;12.73;5.72;;;;;;;22.51;62.98;101093.63;5068092;27;96935;-68
2022/08/28 03:20:46;;;;;;;14.68;4.97;;;;;;;22.54;63.07;101092.53;5063147;27;98430;-69
2022/08/28 03:23:26;;;;;;;15.13;5.47;;;;;;;22.72;62.55;101092.88;5061216;27;99214;-69
2022/08/28 03:25:55;;;;;;;13.63;4.85;;;;;;;22.57;62.77;101095.84;5062804;27;99197;-68
2022/08/28 03:28:21;;;;;;;22.55;5.90;;;;;;;22.91;61.64;101090.44;5066027;27;96866;-68
2022/08/28 03:30:48;;;;;;;11.30;4.93;;;;;;;22.90;61.47;101091.44;5061393;27;96743;-68
2022/08/28 03:33:15;;;;;;;12.57;4.78;;;;;;;22.74;61.73;101085.56;5065840;27;98908;-68
2022/08/28 03:35:43;;;;;;;11.68;4.93;;;;;;;22.69;61.82;101095.84;5062595;27;98943;-68
2022/08/28 03:38:12;;;;;;;13.32;4.80;;;;;;;22.62;61.67;101092.78;5066392;27;97750;-68
2022/08/28 03:40:41;;;;;;;12.40;4.60;;;;;;;22.71;61.24;101099.28;5064989;27;98286;-68
2022/08/28 03:43:09;;;;;;;12.13;4.13;;;;;;;22.63;61.64;101100.75;5064890;27;99513;-68
2022/08/28 03:45:37;;;;;;;13.40;4.47;;;;;;;22.71;61.03;101088.50;5058793;27;98796;-68
2022/08/28 03:48:06;;;;;;;15.88;4.78;;;;;;;22.45;61.49;101099.50;5064926;27;97113;-69
2022/08/28 03:50:32;;;;;;;16.13;4.13;;;;;;;22.39;61.60;101101.81;5062953;27;97254;-68
2022/08/28 03:53:01;;;;;;;14.60;4.35;;;;;;;22.42;61.59;101102.44;5069272;27;99049;-68
2022/08/28 03:55:30;;;;;;;8.65;3.60;;;;;;;22.47;61.18;101099.38;5064997;27;98862;-68
2022/08/28 03:57:58;;;;;;;18.90;4.85;;;;;;;22.23;62.11;101104.88;5065662;27;97063;-68
2022/08/28 04:00:26;;;;;;;13.95;4.40;;;;;;;22.05;62.59;101104.50;5064720;27;96802;-68
2022/08/28 04:02:53;;;;;;;14.45;3.83;;;;;;;22.25;62.02;101097.53;5067660;27;99192;-68
2022/08/28 04:05:19;;;;;;;16.52;4.78;;;;;;;22.58;60.90;101111.00;5064645;27;98996;-68
2022/08/28 04:07:46;;;;;;;11.18;3.97;;;;;;;22.72;60.63;101119.81;5072446;27;97856;-68
2022/08/28 04:10:12;;;;;;;12.57;3.80;;;;;;;22.31;61.09;101115.91;5066051;27;96931;-68
2022/08/28 04:12:38;;;;;;;16.33;4.50;;;;;;;22.10;61.37;101114.88;5066198;27;98873;-68
2022/08/28 04:15:06;;;;;;;11.73;3.58;;;;;;;22.08;61.64;101117.69;5067218;27;98828;-68
2022/08/28 04:17:34;;;;;;;24.40;3.50;;;;;;;21.96;62.08;101120.47;5068368;27;98727;-69
2022/08/28 04:20:00;;;;;;;13.30;3.72;;;;;;;22.15;61.09;101120.75;5076026;27;96990;-69
2022/08/28 04:22:26;;;;;;;13.48;3.97;;;;;;;21.98;61.49;101113.16;5067425;27;99257;-69
2022/08/28 04:24:53;;;;;;;7.90;3.30;;;;;;;22.18;61.04;101121.41;5068698;27;100376;-69
2022/08/28 04:27:19;;;;;;;12.32;3.78;;;;;;;22.42;60.46;101118.59;5071767;27;97513;-70
2022/08/28 04:29:47;;;;;;;13.63;3.92;;;;;;;22.22;60.66;101127.38;5073038;27;96947;-69
2022/08/28 04:32:13;;;;;;;20.20;4.03;;;;;;;22.27;60.28;101127.88;5065826;27;99421;-68
2022/08/28 04:34:41;;;;;;;12.73;3.08;;;;;;;21.94;61.21;101138.53;5069746;27;100519;-68
2022/08/28 04:37:07;;;;;;;17.30;4.28;;;;;;;22.22;60.56;101140.84;5068238;27;97205;-68
2022/08/28 04:39:33;;;;;;;14.07;3.35;;;;;;;21.90;61.19;101137.06;5069696;27;96927;-68
2022/08/28 04:42:00;;;;;;;19.10;4.07;;;;;;;21.84;61.13;101141.94;5064444;27;99448;-68
2022/08/28 04:44:27;;;;;;;18.30;3.95;;;;;;;22.06;60.43;101143.00;5072291;27;98952;-68
2022/08/28 04:46:53;;;;;;;17.05;4.07;;;;;;;22.03;60.39;101152.19;5065805;27;96951;-69
2022/08/28 04:49:22;;;;;;;11.65;3.22;;;;;;;22.17;59.71;101154.66;5070320;27;97445;-68
2022/08/28 04:51:51;;;;;;;14.85;3.28;;;;;;;22.25;59.84;101148.69;5073111;27;102409;-68
2022/08/28 04:54:17;;;;;;;20.33;3.30;;;;;;;22.22;59.60;101151.59;5068907;27;97802;-69
2022/08/28 04:56:44;;;;;;;11.75;3.33;;;;;;;22.17;59.75;101156.50;5073396;27;96895;-68
2022/08/28 04:59:11;;;;;;;11.82;3.63;;;;;;;21.97;59.93;101147.28;5071321;27;98249;-68
2022/08/28 05:01:39;;;;;;;15.77;3.40;;;;;;;21.79;60.43;101146.78;5067015;27;98943;-68
2022/08/28 05:04:06;;;;;;;12.25;3.20;;;;;;;21.41;61.86;101155.03;5070525;27;100500;-68
2022/08/28 05:06:33;;;;;;;13.63;3.38;;;;;;;21.73;61.17;101154.47;5065897;27;98241;-68
2022/08/28 05:09:03;;;;;;;14.98;3.53;;;;;;;21.74;60.39;101146.28;5070745;27;96820;-68
2022/08/28 05:11:31;;;;;;;12.30;3.05;;;;;;;21.65;60.70;101147.00;5068682;27;98974;-69
2022/08/28 05:14:01;;;;;;;16.77;3.05;;;;;;;21.77;60.43;101142.50;5069354;27;101738;-69
2022/08/28 05:16:27;;;;;;;15.43;4.15;;;;;;;21.69;60.46;101151.16;5068561;27;98353;-68
2022/08/28 05:18:58;;;;;;;16.98;3.08;;;;;;;21.56;60.71;101157.56;5067252;27;97040;-67
2022/08/28 05:21:25;;;;;;;13.32;3.00;;;;;;;21.45;61.03;101158.38;5068575;27;98914;-68
2022/08/28 05:23:55;;;;;;;19.88;3.17;;;;;;;21.73;60.09;101158.00;5070480;27;98877;-68
2022/08/28 05:26:23;;;;;;;14.98;3.42;;;;;;;21.94;59.73;101165.44;5066255;27;97554;-69
2022/08/28 05:28:49;;;;;;;18.27;2.97;;;;;;;21.98;59.21;101166.97;5070964;27;97685;-68
2022/08/28 05:31:19;;;;;;;12.10;3.28;;;;;;;21.47;60.35;101164.47;5067229;27;98983;-68
2022/08/28 05:33:47;;;;;;;9.02;3.13;;;;;;;21.28;61.03;101167.69;5076072;27;98815;-68
2022/08/28 05:36:14;;;;;;;13.35;2.95;;;;;;;21.22;61.33;101169.94;5069195;27;97766;-68
2022/08/28 05:38:44;;;;;;;12.95;4.07;;;;;;;21.34;60.82;101177.13;5070590;27;96883;-68
2022/08/28 05:41:10;;;;;;;19.35;4.03;;;;;;;21.45;59.91;101177.19;5069930;27;101639;-68
2022/08/28 05:43:38;;;;;;;12.32;3.65;;;;;;;21.60;59.71;101183.25;5071524;27;98783;-68
2022/08/28 05:46:09;;;;;;;11.13;2.88;;;;;;;21.61;59.51;101175.06;5070052;27;97532;-68
2022/08/28 05:48:39;;;;;;;19.52;3.65;;;;;;;21.03;60.84;101179.31;5071196;27;97721;-67
2022/08/28 05:51:10;;;;;;;20.67;4.18;;;;;;;20.90;nan;101178.50;5069296;27;100992;-67
2022/08/28 05:53:38;;;;;;;17.35;4.35;;;;;;;21.20;60.76;101179.97;5071303;27;98806;-68
2022/08/28 05:56:05;;;;;;;17.08;4.00;;;;;;;21.00;60.79;101178.72;5069088;27;97686;-69
2022/08/28 05:58:33;;;;;;;17.23;4.00;;;;;;;20.95;61.35;101180.84;5066375;27;97141;-68
2022/08/28 06:01:16;;;;;;;12.95;3.05;;;;;;;20.95;61.33;101180.84;5064881;27;98428;-69
2022/08/28 06:03:53;;;;;;;21.17;4.18;;;;;;;20.83;61.59;101173.66;5069892;27;99202;-68
2022/08/28 06:06:23;;;;;;;16.13;3.58;;;;;;;21.12;60.74;101177.81;5069510;27;96896;-69
2022/08/28 06:08:50;;;;;;;15.25;3.97;;;;;;;21.22;60.27;101184.25;5072023;27;96807;-68
2022/08/28 06:11:19;;;;;;;17.13;4.07;;;;;;;20.99;61.17;101187.72;5065593;27;98978;-68
2022/08/28 06:13:48;;;;;;;15.02;3.92;;;;;;;21.44;59.71;101180.84;5063697;27;99389;-69
2022/08/28 06:16:15;;;;;;;14.20;3.75;;;;;;;21.40;59.69;101185.59;5068392;27;97351;-69
2022/08/28 06:18:42;;;;;;;12.88;4.32;;;;;;;21.47;59.30;101180.63;5065588;27;97144;-67
2022/08/28 06:21:08;;;;;;;21.20;4.72;;;;;;;21.52;59.27;101189.22;5067939;27;98290;-68
2022/08/28 06:23:37;;;;;;;13.38;3.90;;;;;;;21.87;58.26;101181.19;5072117;27;98986;-69
2022/08/28 06:26:05;;;;;;;17.20;4.28;;;;;;;21.85;58.25;101186.69;5067447;27;96868;-68
2022/08/28 06:28:32;;;;;;;18.52;4.85;;;;;;;21.81;58.42;101177.13;5073190;27;97307;-69
2022/08/28 06:31:02;;;;;;;17.63;4.20;;;;;;;21.89;58.16;101192.69;5068083;27;100741;-68
2022/08/28 06:33:30;;;;;;;16.00;4.03;;;;;;;21.64;58.90;101184.75;5068520;27;98936;-68
2022/08/28 06:36:04;;;;;;;15.10;3.72;;;;;;;21.57;59.26;101195.13;5068283;27;96804;-68
2022/08/28 06:38:31;;;;;;;17.15;4.63;;;;;;;21.55;59.20;101190.81;5071715;27;97818;-68
2022/08/28 06:40:57;;;;;;;13.13;4.10;;;;;;;22.30;57.42;101196.78;5067267;27;99193;-67
2022/08/28 06:43:26;;;;;;;15.32;5.25;;;;;;;21.67;57.85;101201.50;5066889;27;98964;-68
2022/08/28 06:45:54;;;;;;;14.80;4.30;;;;;;;21.38;59.25;101197.44;5066407;27;96955;-69
2022/08/28 06:48:24;;;;;;;12.10;4.28;;;;;;;20.84;60.63;101216.53;5065350;27;97647;-68
2022/08/28 06:50:53;;;;;;;14.60;4.03;;;;;;;21.14;60.27;101212.59;5064412;27;100015;-68
2022/08/28 06:53:24;;;;;;;19.38;4.75;;;;;;;21.23;59.55;101212.00;5067260;27;98818;-68
2022/08/28 06:56:01;;;;;;;17.50;4.70;;;;;;;21.21;59.81;101219.28;5065619;27;97857;-68
2022/08/28 06:58:31;;;;;;;19.05;4.10;;;;;;;21.09;60.53;101229.06;5067124;27;97024;-68
2022/08/28 07:01:04;;;;;;;16.75;4.97;;;;;;;21.29;59.88;101223.16;5066364;27;98977;-68
2022/08/28 07:03:33;;;;;;;13.88;4.32;;;;;;;21.89;58.45;101222.28;5069047;27;99507;-69
2022/08/28 07:06:06;;;;;;;14.82;4.05;;;;;;;22.03;57.51;101223.97;5061948;27;96949;-68
2022/08/28 07:08:34;;;;;;;19.83;4.20;;;;;;;21.99;57.63;101222.50;5070283;27;96941;-68
2022/08/28 07:11:09;;;;;;;16.65;4.10;;;;;;;22.24;56.63;101233.97;5066125;27;98457;-68
2022/08/28 07:13:35;;;;;;;19.60;3.85;;;;;;;21.79;57.63;101237.41;5070314;27;98693;-68
2022/08/28 07:16:02;;;;;;;18.50;4.22;;;;;;;22.17;57.29;101242.63;5063466;27;96945;-67
2022/08/28 07:18:30;;;;;;;14.80;4.28;;;;;;;22.31;56.14;101239.75;5069513;27;97192;-68
2022/08/28 07:20:57;;;;;;;17.60;3.58;;;;;;;22.65;55.61;101238.81;5067498;27;98979;-69
2022/08/28 07:23:25;;;;;;;17.77;4.70;;;;;;;22.55;55.56;101243.22;5066954;27;98841;-68
2022/08/28 07:25:51;;;;;;;17.95;4.95;;;;;;;22.01;56.73;101247.44;5068763;27;98503;-68
2022/08/28 07:28:18;;;;;;;19.33;4.03;;;;;;;21.50;58.20;101242.25;5070290;27;97739;-69
2022/08/28 07:30:45;;;;;;;13.65;4.03;;;;;;;21.56;58.10;101241.78;5067379;27;99399;-69
2022/08/28 07:33:11;;;;;;;13.73;4.00;;;;;;;21.70;57.98;101243.47;5064228;27;98874;-69
2022/08/28 07:35:44;;;;;;;13.43;4.22;;;;;;;21.84;57.75;101246.84;5067460;27;98434;-68
2022/08/28 07:38:11;;;;;;;12.02;4.10;;;;;;;22.18;56.68;101249.72;5072512;27;98108;-68
2022/08/28 07:40:41;;;;;;;14.30;3.92;;;;;;;22.36;55.93;101255.53;5070601;27;99518;-68
2022/08/28 07:46:00;;;;;;;21.23;3.95;;;;;;;22.75;54.65;101275.88;5071041;27;97612;-70
2022/08/28 07:48:30;;;;;;;15.97;4.07;;;;;;;23.19;53.43;101275.91;5067533;27;98623;-69
2022/08/28 07:50:56;;;;;;;14.27;3.92;;;;;;;23.08;53.36;101272.34;5069125;27;99169;-69
2022/08/28 07:53:23;;;;;;;13.43;3.63;;;;;;;23.19;52.88;101275.91;5068980;27;99047;-68
2022/08/28 07:55:51;;;;;;;12.02;4.28;;;;;;;22.59;54.51;101270.75;5071915;27;97636;-67
2022/08/28 07:58:20;;;;;;;10.88;3.85;;;;;;;22.59;54.99;101268.94;5070011;27;97131;-69
2022/08/28 08:00:52;;;;;;;19.77;4.43;;;;;;;22.94;54.30;101273.44;5071469;27;102016;-69
2022/08/28 08:03:21;;;;;;;12.55;3.78;;;;;;;23.62;52.54;101283.28;5067598;27;96838;-69
2022/08/28 08:05:52;;;;;;;11.55;3.38;;;;;;;24.06;50.74;101279.59;5071421;27;96747;-69
2022/08/28 08:08:19;;;;;;;17.83;3.90;;;;;;;23.95;51.23;101282.34;5068576;27;98391;-69
2022/08/28 08:10:46;;;;;;;8.73;3.10;;;;;;;23.89;50.70;101283.69;5072834;27;98884;-68
2022/08/28 08:13:16;;;;;;;15.20;4.40;;;;;;;23.68;51.73;101285.47;5071613;27;98084;-68
2022/08/28 08:15:43;;;;;;;14.27;5.28;;;;;;;24.33;50.34;101287.25;5076981;27;96721;-69
2022/08/28 08:18:16;;;;;;;13.13;4.07;;;;;;;24.46;49.26;101283.38;5071362;27;99959;-68
2022/08/28 08:20:42;;;;;;;15.23;4.13;;;;;;;24.15;49.85;101287.78;5068536;27;98932;-68
2022/08/28 08:23:08;;;;;;;9.68;3.53;;;;;;;23.89;50.66;101291.81;5071939;27;98840;-69
2022/08/28 08:25:36;;;;;;;16.63;4.38;;;;;;;24.05;50.67;101289.53;5064939;27;96959;-68
2022/08/28 08:28:04;;;;;;;13.18;3.50;;;;;;;24.35;49.37;101286.09;5067404;27;98748;-71
2022/08/28 08:30:32;;;;;;;14.85;3.70;;;;;;;24.69;49.17;101280.53;5069530;27;99657;-69
2022/08/28 08:33:03;;;;;;;12.45;4.32;;;;;;;24.49;49.21;101290.34;5065093;27;96929;-70
2022/08/28 08:35:30;;;;;;;13.60;4.20;;;;;;;24.25;49.71;101293.28;5067540;27;96786;-68
2022/08/28 08:37:57;;;;;;;15.10;4.03;;;;;;;24.45;49.37;101288.91;5074922;27;97020;-69
2022/08/28 08:40:25;;;;;;;14.07;4.68;;;;;;;23.64;51.52;101292.06;5070840;27;99224;-69
2022/08/28 08:42:55;;;;;;;14.27;4.25;;;;;;;24.03;50.81;101296.88;5068472;27;99202;-69
2022/08/28 08:45:25;;;;;;;12.20;3.97;;;;;;;24.25;50.05;101296.00;5072537;27;98936;-68
2022/08/28 08:47:55;;;;;;;14.07;4.30;;;;;;;23.36;51.88;101305.09;5071432;27;96939;-69
2022/08/28 08:50:24;;;;;;;10.40;3.83;;;;;;;23.64;51.53;101313.66;5071108;27;101975;-69
2022/08/28 08:53:15;;;;;;;14.65;4.53;;;;;;;23.34;52.14;101307.03;5072247;27;99224;-69
2022/08/28 08:55:45;;;;;;;11.80;5.07;;;;;;;23.23;52.65;101315.13;5064133;27;96936;-69
2022/08/28 08:58:23;;;;;;;11.60;4.78;;;;;;;22.97;53.14;101314.47;5071871;27;98722;-69
2022/08/28 09:00:57;;;;;;;16.58;5.53;;;;;;;22.83;53.77;101320.09;5070311;27;99430;-69
2022/08/28 09:03:32;;;;;;;21.30;6.68;;;;;;;23.19;52.69;101312.78;5068709;27;99083;-69
2022/08/28 09:06:03;;;;;;;16.25;4.50;;;;;;;22.76;54.51;101321.56;5069792;27;96886;-69
2022/08/28 09:08:39;;;;;;;17.55;4.55;;;;;;;23.15;53.64;101317.56;5064866;27;97276;-69
2022/08/28 09:11:15;;;;;;;13.77;4.55;;;;;;;23.34;52.83;101307.03;5064940;27;98396;-70
2022/08/28 09:13:50;;;;;;;18.27;4.50;;;;;;;23.29;53.32;101314.66;5065987;27;98784;-70
2022/08/28 09:16:24;;;;;;;14.53;4.70;;;;;;;23.94;51.46;101323.81;5063457;27;97696;-70
2022/08/28 09:18:55;;;;;;;16.45;4.78;;;;;;;23.39;52.34;101312.91;5068189;27;97004;-70
2022/08/28 09:21:27;;;;;;;17.70;4.82;;;;;;;23.70;52.32;101323.94;5066264;27;99162;-69
2022/08/28 09:23:59;;;;;;;12.13;4.20;;;;;;;23.91;51.70;101327.59;5065263;27;99175;-69
2022/08/28 09:26:26;;;;;;;18.80;6.93;;;;;;;23.96;50.73;101325.38;5074455;27;97255;-70
2022/08/28 09:29:01;;;;;;;14.50;4.60;;;;;;;23.64;52.04;101319.06;5069575;27;96863;-70
2022/08/28 09:31:35;;;;;;;21.25;5.63;;;;;;;23.33;52.36;101328.72;5073897;27;98878;-70
2022/08/28 09:34:25;;;;;;;21.08;4.72;;;;;;;22.97;53.68;101322.56;5070988;27;98983;-69
2022/08/28 09:36:56;;;;;;;13.15;4.90;;;;;;;22.91;53.70;101327.56;5069425;27;98479;-69
2022/08/28 09:39:25;;;;;;;15.50;4.63;;;;;;;23.27;53.12;101324.69;5066214;27;98638;-70
2022/08/28 09:44:57;;;;;;;13.95;4.75;;;;;;;23.38;52.30;101330.06;5064536;27;97130;-70
2022/08/28 09:47:47;;;;;;;14.55;4.47;;;;;;;23.21;52.90;101327.88;5070325;27;97218;-70
2022/08/28 09:50:34;;;;;;;14.45;5.13;;;;;;;22.80;53.96;101332.94;5069587;27;97327;-70
2022/08/28 09:53:17;;;;;;;10.73;4.78;;;;;;;22.70;54.51;101331.91;5070017;27;99160;-70
2022/08/28 09:55:52;;;;;;;13.65;4.55;;;;;;;23.23;53.22;101333.16;5067066;27;98826;-70
2022/08/28 09:58:28;;;;;;;9.80;4.68;;;;;;;23.54;52.13;101339.66;5061079;27;98026;-68
2022/08/28 10:01:02;;;;;;;13.80;6.93;;;;;;;23.50;52.08;101343.59;5062911;27;97185;-69
2022/08/28 10:03:34;;;;;;;9.95;4.60;;;;;;;23.63;52.30;101341.63;5065001;27;99719;-69
2022/08/28 10:06:11;;;;;;;16.55;5.53;;;;;;;23.33;52.49;101345.75;5064032;27;98889;-68
2022/08/28 10:08:57;;;;;;;11.07;4.97;;;;;;;24.22;50.94;101348.41;5064663;27;96998;-68
2022/08/28 10:11:31;;;;;;;15.40;5.85;;;;;;;24.51;49.96;101348.66;5066951;27;97086;-68
2022/08/28 10:14:06;;;;;;;10.63;4.57;;;;;;;24.73;48.81;101347.72;5073475;27;102173;-69
2022/08/28 10:16:42;;;;;;;17.48;5.40;;;;;;;24.79;48.76;101354.44;5068125;27;99594;-69
2022/08/28 10:19:20;;;;;;;17.80;5.70;;;;;;;24.89;48.51;101349.94;5069475;27;100470;-68
2022/08/28 10:21:54;;;;;;;10.18;4.60;;;;;;;25.04;48.09;101345.09;5065267;27;98681;-69
2022/08/28 10:24:33;;;;;;;15.38;4.80;;;;;;;24.81;48.47;101350.59;5060288;27;98665;-69
2022/08/28 10:27:12;;;;;;;11.13;4.93;;;;;;;25.17;47.72;101357.44;5068061;27;98776;-68
2022/08/28 10:29:51;;;;;;;13.75;4.95;;;;;;;25.28;47.46;101364.59;5062369;27;97125;-69
2022/08/28 10:32:37;;;;;;;12.48;6.30;;;;;;;25.39;47.29;101354.56;5071995;27;97419;-68
2022/08/28 10:35:11;;;;;;;13.00;5.32;;;;;;;25.12;47.57;101356.13;5063068;27;98978;-68
2022/08/28 10:37:50;;;;;;;14.35;5.30;;;;;;;24.82;47.89;101365.81;5063769;27;99209;-68
2022/08/28 10:40:23;;;;;;;13.68;4.97;;;;;;;24.83;48.95;101369.41;5067023;27;97119;-68
2022/08/28 10:42:56;;;;;;;11.05;5.22;;;;;;;24.80;48.47;101367.81;5072997;27;98709;-69
2022/08/28 10:45:24;;;;;;;9.10;4.43;;;;;;;24.58;49.38;101376.03;5071222;27;98827;-68
2022/08/28 10:47:55;;;;;;;8.25;4.68;;;;;;;25.09;48.03;101370.75;5064225;27;98556;-67
2022/08/28 10:50:25;;;;;;;8.65;4.40;;;;;;;24.59;49.09;101377.75;5063949;27;98535;-71
2022/08/28 10:52:57;;;;;;;13.57;4.90;;;;;;;24.17;50.29;101377.59;5070935;27;96932;-71
2022/08/28 10:55:31;;;;;;;10.82;5.00;;;;;;;23.96;51.05;101376.66;5067956;27;99141;-70
2022/08/28 10:58:01;;;;;;;10.55;4.90;;;;;;;24.05;50.62;101386.72;5067422;27;97483;-71
2022/08/28 11:00:28;;;;;;;9.48;4.50;;;;;;;23.93;51.16;101379.63;5065469;27;97096;-72
2022/08/28 11:02:58;;;;;;;15.02;5.03;;;;;;;24.32;50.56;101385.47;5066744;27;98532;-71
2022/08/28 11:05:28;;;;;;;8.63;4.70;;;;;;;24.49;49.83;101384.91;5067994;27;98854;-71
2022/08/28 11:08:00;;;;;;;12.77;5.22;;;;;;;24.58;49.21;101381.44;5068731;27;98849;-70
2022/08/28 11:10:48;;;;;;;14.27;4.57;;;;;;;24.60;49.23;101384.88;5067757;27;96977;-71
2022/08/28 11:13:41;;;;;;;14.25;6.50;;;;;;;24.31;49.76;101386.44;5062412;27;98327;-70
2022/08/28 11:16:18;;;;;;;19.35;7.03;;;;;;;24.66;49.26;101387.06;5069353;27;97710;-71
2022/08/28 11:18:55;;;;;;;;;;;;;;;24.59;49.00;101389.41;5072224;27;97677;-71
2022/08/28 11:21:27;;;;;;;;;;;;;;;24.44;49.86;101393.41;5068112;27;97151;-71
2022/08/28 11:24:00;;;;;;;15.48;5.47;;;;;;;23.65;51.40;101390.91;5069282;27;97025;-71
2022/08/28 11:26:33;;;;;;;14.90;5.38;;;;;;;23.88;51.59;101395.34;5069749;27;98921;-71
2022/08/28 11:29:01;;;;;;;11.18;5.13;;;;;;;23.84;51.19;101404.63;5064782;27;98738;-70
2022/08/28 11:31:34;;;;;;;11.10;5.60;;;;;;;24.38;50.36;101406.53;5069556;27;97022;-70
2022/08/28 11:34:01;;;;;;;15.38;5.60;;;;;;;24.61;49.56;101406.34;5067362;27;96865;-71